createdAt,value
2023-05-08T00:01:11.054Z,0.55
2023-05-08T00:03:41.754Z,0.20
2023-05-08T00:06:12.106Z,0.22
2023-05-08T00:08:43.894Z,0.30
2023-05-08T00:11:14.146Z,0.17
2023-05-08T00:13:44.437Z,0.20
2023-05-08T00:16:14.730Z,0.57
2023-05-08T00:18:45.828Z,0.30
2023-05-08T00:21:16.122Z,0.25
2023-05-08T00:23:46.407Z,0.40
2023-05-08T00:26:16.724Z,0.50
2023-05-08T00:28:47.024Z,0.30
2023-05-08T00:31:17.373Z,0.50
2023-05-08T00:33:47.606Z,0.50
2023-05-08T00:36:17.882Z,0.20
2023-05-08T00:38:48.272Z,0.10
2023-05-08T00:41:18.538Z,0.40
2023-05-08T00:43:48.834Z,0.40
2023-05-08T00:46:19.613Z,0.52
2023-05-08T00:48:50.508Z,0.40
2023-05-08T00:51:21.165Z,0.30
2023-05-08T00:53:51.772Z,0.35
2023-05-08T00:56:24.752Z,0.20
2023-05-08T00:58:56.520Z,0.30
2023-05-08T01:01:27.904Z,0.20
2023-05-08T01:03:58.374Z,0.20
2023-05-08T01:06:28.603Z,0.38
2023-05-08T01:08:58.951Z,0.30
2023-05-08T01:11:38.245Z,0.20
2023-05-08T01:14:17.357Z,0.52
2023-05-08T01:16:53.105Z,0.57
2023-05-08T01:19:35.564Z,0.20
2023-05-08T01:22:11.732Z,0.20
2023-05-08T01:25:18.723Z,0.40
2023-05-08T01:28:07.181Z,0.30
2023-05-08T01:31:02.445Z,0.25
2023-05-08T01:33:47.726Z,0.40
2023-05-08T01:36:51.275Z,0.40
2023-05-08T01:39:23.642Z,0.55
2023-05-08T01:42:13.509Z,0.30
2023-05-08T01:44:49.783Z,0.50
2023-05-08T01:47:23.111Z,0.30
2023-05-08T01:50:19.184Z,0.70
2023-05-08T01:52:54.362Z,0.40
2023-05-08T01:55:29.473Z,0.63
2023-05-08T01:58:01.989Z,0.55
2023-05-08T02:00:32.983Z,0.40
2023-05-08T02:03:04.204Z,0.50
2023-05-08T02:05:35.490Z,0.68
2023-05-08T02:08:07.267Z,0.50
2023-05-08T02:10:39.283Z,0.77
2023-05-08T02:13:12.949Z,0.63
2023-05-08T02:15:45.299Z,0.30
2023-05-08T02:18:18.135Z,0.90
2023-05-08T02:20:50.176Z,0.40
2023-05-08T02:23:22.790Z,0.55
2023-05-08T02:25:54.880Z,0.70
2023-05-08T02:28:27.316Z,0.50
2023-05-08T02:30:59.000Z,0.68
2023-05-08T02:33:32.052Z,0.70
2023-05-08T02:36:08.369Z,0.65
2023-05-08T02:38:42.246Z,0.40
2023-05-08T02:41:14.315Z,0.55
2023-05-08T02:43:45.563Z,0.60
2023-05-08T02:46:44.302Z,0.85
2023-05-08T02:49:46.548Z,0.50
2023-05-08T02:52:27.293Z,0.47
2023-05-08T02:55:34.015Z,0.50
2023-05-08T02:58:16.824Z,0.63
2023-05-08T03:01:01.296Z,0.50
2023-05-08T03:03:59.515Z,0.60
2023-05-08T03:06:32.474Z,0.50
2023-05-08T03:09:05.935Z,0.55
2023-05-08T03:11:44.704Z,0.40
2023-05-08T03:14:18.242Z,0.60
2023-05-08T03:16:50.071Z,0.50
2023-05-08T03:19:32.827Z,0.77
2023-05-08T03:22:05.404Z,0.45
2023-05-08T03:24:39.074Z,0.60
2023-05-08T03:27:11.703Z,0.90
2023-05-08T03:29:43.592Z,0.63
2023-05-08T03:32:16.921Z,0.77
2023-05-08T03:34:47.618Z,0.80
2023-05-08T03:37:18.393Z,0.50
2023-05-08T03:39:49.301Z,0.68
2023-05-08T03:42:23.334Z,0.52
2023-05-08T03:44:56.892Z,0.60
2023-05-08T03:47:28.248Z,0.60
2023-05-08T03:49:58.791Z,0.77
2023-05-08T03:52:29.433Z,0.65
2023-05-08T03:54:59.697Z,0.50
2023-05-08T03:57:37.920Z,0.68
2023-05-08T04:00:27.692Z,0.40
2023-05-08T04:03:25.095Z,0.40
2023-05-08T04:06:05.430Z,0.40
2023-05-08T04:08:45.162Z,0.50
2023-05-08T04:11:28.565Z,0.60
2023-05-08T04:14:05.609Z,0.40
2023-05-08T04:16:40.638Z,0.43
2023-05-08T04:19:16.002Z,0.57
2023-05-08T04:21:46.820Z,0.20
2023-05-08T04:24:19.675Z,0.50
2023-05-08T04:26:50.301Z,0.30
2023-05-08T04:29:21.033Z,0.35
2023-05-08T04:31:52.652Z,0.40
2023-05-08T04:34:24.119Z,0.45
2023-05-08T04:36:55.109Z,0.60
2023-05-08T04:39:25.668Z,0.47
2023-05-08T04:41:57.397Z,0.60
2023-05-08T04:44:28.364Z,0.45
2023-05-08T04:46:58.826Z,0.50
2023-05-08T04:49:29.067Z,0.32
2023-05-08T04:51:59.377Z,0.50
2023-05-08T04:54:29.740Z,0.45
2023-05-08T04:57:00.229Z,0.63
2023-05-08T04:59:32.004Z,0.57
2023-05-08T05:02:04.867Z,0.90
2023-05-08T05:04:35.460Z,0.63
2023-05-08T05:07:08.726Z,0.93
2023-05-08T05:09:40.831Z,0.30
2023-05-08T05:12:11.241Z,0.45
2023-05-08T05:14:41.480Z,0.40
2023-05-08T05:17:11.685Z,0.50
2023-05-08T05:19:42.324Z,0.30
2023-05-08T05:22:12.595Z,0.43
2023-05-08T05:24:43.318Z,0.47
2023-05-08T05:27:13.454Z,0.40
2023-05-08T05:29:43.744Z,0.35
2023-05-08T05:32:13.931Z,0.30
2023-05-08T05:34:44.093Z,0.35
2023-05-08T05:37:14.243Z,0.30
2023-05-08T05:39:44.568Z,0.40
2023-05-08T05:42:14.906Z,0.70
2023-05-08T05:44:45.183Z,0.55
2023-05-08T05:47:15.972Z,0.32
2023-05-08T05:49:49.009Z,0.30
2023-05-08T05:52:19.254Z,0.50
2023-05-08T05:54:49.699Z,0.43
2023-05-08T05:57:19.899Z,0.30
2023-05-08T05:59:50.410Z,0.50
2023-05-08T06:02:22.034Z,0.30
2023-05-08T06:04:54.458Z,0.22
2023-05-08T06:07:24.600Z,0.30
2023-05-08T06:09:54.905Z,0.30
2023-05-08T06:12:25.212Z,0.40
2023-05-08T06:14:55.733Z,0.70
2023-05-08T06:17:26.088Z,0.38
2023-05-08T06:19:58.354Z,0.50
2023-05-08T06:22:28.599Z,0.82
2023-05-08T06:24:59.117Z,0.60
2023-05-08T06:27:29.801Z,0.30
2023-05-08T06:30:00.904Z,1.00
2023-05-08T06:32:31.136Z,0.45
2023-05-08T06:35:01.342Z,0.60
2023-05-08T06:37:31.537Z,0.50
2023-05-08T06:40:11.647Z,0.80
2023-05-08T06:42:43.691Z,0.50
2023-05-08T06:45:14.461Z,0.60
2023-05-08T06:47:44.886Z,0.60
2023-05-08T06:50:15.452Z,0.32
2023-05-08T06:52:45.623Z,0.57
2023-05-08T06:55:16.197Z,0.38
2023-05-08T06:57:46.434Z,0.50
2023-05-08T07:00:17.444Z,0.50
2023-05-08T07:02:47.806Z,0.30
2023-05-08T07:05:18.432Z,0.40
2023-05-08T07:07:49.106Z,0.40
2023-05-08T07:10:21.877Z,0.20
2023-05-08T07:12:52.565Z,0.40
2023-05-08T07:15:26.496Z,0.30
2023-05-08T07:17:57.461Z,0.47
2023-05-08T07:20:27.836Z,0.32
2023-05-08T07:22:58.137Z,0.60
2023-05-08T07:25:28.524Z,0.50
2023-05-08T07:28:01.006Z,0.30
2023-05-08T07:30:33.114Z,0.40
2023-05-08T07:33:03.559Z,0.30
2023-05-08T07:35:33.910Z,0.40
2023-05-08T07:38:04.234Z,0.20
2023-05-08T07:40:34.618Z,0.20
2023-05-08T07:43:05.470Z,0.22
2023-05-08T07:45:36.605Z,0.20
2023-05-08T07:48:07.193Z,0.25
2023-05-08T07:50:38.235Z,0.40
2023-05-08T07:53:08.594Z,0.43
2023-05-08T07:55:39.747Z,0.50
2023-05-08T07:58:10.563Z,0.40
2023-05-08T08:00:42.606Z,0.80
2023-05-08T08:03:12.863Z,0.30
2023-05-08T08:05:43.760Z,0.40
2023-05-08T08:08:14.308Z,0.55
2023-05-08T08:10:44.568Z,0.43
2023-05-08T08:13:14.843Z,0.47
2023-05-08T08:15:45.424Z,0.38
2023-05-08T08:18:15.738Z,0.50
2023-05-08T08:20:46.087Z,0.35
2023-05-08T08:23:16.258Z,0.20
2023-05-08T08:25:46.517Z,0.32
2023-05-08T08:28:16.773Z,0.30
2023-05-08T08:30:47.329Z,0.50
2023-05-08T08:33:19.067Z,0.50
2023-05-08T08:35:49.781Z,0.30
2023-05-08T08:38:28.484Z,0.40
2023-05-08T08:40:58.869Z,0.40
2023-05-08T08:43:30.245Z,0.45
2023-05-08T08:46:03.897Z,0.40
2023-05-08T08:48:34.598Z,0.30
2023-05-08T08:51:06.830Z,0.30
2023-05-08T08:53:45.455Z,0.20
2023-05-08T08:56:17.907Z,0.40
2023-05-08T08:58:57.157Z,0.30
2023-05-08T09:01:28.458Z,0.20
2023-05-08T09:04:02.066Z,0.30
2023-05-08T09:06:32.682Z,0.28
2023-05-08T09:09:03.917Z,0.32
2023-05-08T09:11:34.846Z,0.40
2023-05-08T09:14:05.494Z,0.22
2023-05-08T09:16:36.522Z,0.57
2023-05-08T09:19:08.080Z,0.30
2023-05-08T09:21:39.869Z,0.50
2023-05-08T09:24:10.659Z,0.57
2023-05-08T09:26:42.671Z,0.40
2023-05-08T09:29:24.159Z,0.45
2023-05-08T09:31:56.432Z,0.40
2023-05-08T09:34:31.268Z,0.40
2023-05-08T09:37:16.057Z,0.43
2023-05-08T09:39:48.929Z,0.50
2023-05-08T09:42:19.295Z,0.60
2023-05-08T09:44:53.940Z,0.55
2023-05-08T09:47:26.165Z,0.60
2023-05-08T09:50:25.547Z,0.60
2023-05-08T09:52:55.921Z,0.55
2023-05-08T09:55:26.475Z,0.57
2023-05-08T09:58:01.826Z,0.70
2023-05-08T10:00:32.622Z,0.68
2023-05-08T10:03:04.618Z,0.47
2023-05-08T10:05:38.037Z,0.90
2023-05-08T10:08:24.559Z,0.80
2023-05-08T10:10:55.002Z,0.50
2023-05-08T10:13:25.367Z,0.90
2023-05-08T10:15:58.945Z,1.45
2023-05-08T10:18:32.171Z,1.25
2023-05-08T10:21:05.127Z,1.10
2023-05-08T10:23:37.673Z,1.17
2023-05-08T10:26:32.872Z,1.42
2023-05-08T10:29:10.649Z,1.20
2023-05-08T10:31:45.660Z,1.23
2023-05-08T10:34:24.909Z,1.50
2023-05-08T10:36:55.226Z,1.13
2023-05-08T10:39:26.012Z,1.48
2023-05-08T10:41:56.530Z,1.25
2023-05-08T10:44:29.174Z,1.60
2023-05-08T10:47:14.281Z,1.90
2023-05-08T10:49:56.740Z,1.83
2023-05-08T10:52:33.160Z,1.95
2023-05-08T10:55:07.835Z,2.38
2023-05-08T10:57:38.907Z,1.90
2023-05-08T11:00:10.265Z,2.20
2023-05-08T11:02:40.965Z,1.52
2023-05-08T11:05:22.050Z,2.65
2023-05-08T11:07:58.978Z,1.90
2023-05-08T11:10:38.799Z,1.88
2023-05-08T11:13:11.007Z,2.40
2023-05-08T11:15:42.899Z,2.78
2023-05-08T11:18:13.529Z,2.15
2023-05-08T11:21:07.687Z,2.30
2023-05-08T11:23:40.584Z,2.15
2023-05-08T11:26:20.120Z,1.92
2023-05-08T11:28:56.531Z,2.38
2023-05-08T11:31:46.723Z,2.65
2023-05-08T11:34:44.448Z,2.22
2023-05-08T11:37:25.636Z,2.50
2023-05-08T11:39:56.724Z,1.95
2023-05-08T11:42:29.890Z,1.80
2023-05-08T11:45:10.744Z,2.00
2023-05-08T11:47:48.009Z,2.20
2023-05-08T11:50:18.650Z,1.80
2023-05-08T11:52:49.171Z,2.47
2023-05-08T11:55:21.253Z,2.10
2023-05-08T11:57:51.455Z,2.05
2023-05-08T12:00:24.424Z,2.08
2023-05-08T12:02:54.866Z,2.00
2023-05-08T12:05:30.841Z,2.13
2023-05-08T12:08:02.566Z,2.40
2023-05-08T12:10:33.134Z,1.92
2023-05-08T12:13:03.554Z,2.22
2023-05-08T12:15:35.625Z,2.17
2023-05-08T12:18:06.099Z,2.03
2023-05-08T12:20:36.395Z,2.25
2023-05-08T12:23:07.286Z,2.28
2023-05-08T12:25:38.467Z,2.50
2023-05-08T12:28:12.858Z,2.40
2023-05-08T12:30:43.338Z,2.53
2023-05-08T12:33:14.262Z,2.42
2023-05-08T12:35:44.878Z,2.70
2023-05-08T12:38:15.553Z,2.45
2023-05-08T12:40:48.073Z,2.20
2023-05-08T12:43:18.372Z,2.30
2023-05-08T12:45:48.699Z,2.10
2023-05-08T12:48:18.996Z,2.30
2023-05-08T12:50:49.470Z,2.45
2023-05-08T12:53:21.604Z,2.22
2023-05-08T12:55:59.650Z,2.50
2023-05-08T12:58:32.653Z,2.08
2023-05-08T13:01:15.882Z,2.30
2023-05-08T13:03:50.766Z,2.42
2023-05-08T13:06:26.441Z,2.47
2023-05-08T13:08:57.854Z,2.50
2023-05-08T13:11:36.068Z,2.60
2023-05-08T13:14:06.445Z,2.40
2023-05-08T13:16:45.973Z,2.10
2023-05-08T13:19:20.844Z,1.95
2023-05-08T13:21:51.186Z,2.35
2023-05-08T13:24:21.634Z,2.58
2023-05-08T13:26:51.944Z,2.17
2023-05-08T13:29:23.797Z,2.25
2023-05-08T13:31:54.039Z,2.17
2023-05-08T13:34:24.359Z,2.10
2023-05-08T13:36:54.682Z,2.20
2023-05-08T13:39:24.907Z,2.50
2023-05-08T13:41:55.148Z,2.13
2023-05-08T13:44:25.591Z,2.60
2023-05-08T13:46:55.862Z,2.10
2023-05-08T13:49:29.344Z,2.28
2023-05-08T13:51:59.580Z,2.22
2023-05-08T13:54:30.106Z,1.90
2023-05-08T13:57:00.495Z,1.95
2023-05-08T13:59:32.871Z,2.10
2023-05-08T14:02:03.938Z,2.13
2023-05-08T14:04:34.480Z,1.77
2023-05-08T14:07:04.791Z,1.88
2023-05-08T14:09:35.560Z,1.95
2023-05-08T14:12:06.058Z,1.95
2023-05-08T14:14:36.366Z,1.98
2023-05-08T14:17:07.916Z,2.20
2023-05-08T14:19:38.380Z,1.80
2023-05-08T14:22:08.720Z,1.92
2023-05-08T14:24:39.136Z,1.73
2023-05-08T14:27:09.438Z,2.38
2023-05-08T14:29:39.759Z,2.20
2023-05-08T14:32:12.621Z,2.05
2023-05-08T14:34:43.016Z,1.58
2023-05-08T14:37:14.755Z,2.15
2023-05-08T14:39:45.519Z,1.80
2023-05-08T14:42:22.748Z,1.80
2023-05-08T14:44:54.127Z,1.77
2023-05-08T14:47:25.115Z,1.80
2023-05-08T14:49:55.658Z,1.83
2023-05-08T14:52:25.970Z,1.45
2023-05-08T14:54:56.475Z,1.83
2023-05-08T14:57:27.244Z,1.80
2023-05-08T14:59:58.475Z,1.58
2023-05-08T15:02:28.816Z,1.80
2023-05-08T15:04:59.182Z,1.70
2023-05-08T15:07:29.446Z,1.65
2023-05-08T15:09:59.718Z,1.80
2023-05-08T15:12:30.088Z,1.60
2023-05-08T15:15:02.595Z,1.65
2023-05-08T15:17:38.001Z,1.30
2023-05-08T15:20:08.972Z,1.50
2023-05-08T15:22:39.455Z,1.73
2023-05-08T15:25:10.272Z,1.63
2023-05-08T15:27:40.846Z,1.83
2023-05-08T15:30:11.992Z,1.27
2023-05-08T15:32:42.375Z,1.65
2023-05-08T15:35:12.964Z,1.42
2023-05-08T15:37:43.780Z,1.13
2023-05-08T15:40:14.610Z,1.50
2023-05-08T15:42:44.861Z,1.55
2023-05-08T15:45:15.517Z,1.23
2023-05-08T15:47:45.939Z,1.48
2023-05-08T15:50:16.679Z,1.20
2023-05-08T15:52:46.921Z,1.20
2023-05-08T15:55:17.456Z,1.40
2023-05-08T15:57:47.903Z,1.50
2023-05-08T16:00:18.794Z,1.48
2023-05-08T16:02:49.968Z,1.50
2023-05-08T16:05:20.628Z,1.30
2023-05-08T16:07:53.234Z,1.58
2023-05-08T16:10:23.996Z,1.13
2023-05-08T16:12:54.339Z,1.33
2023-05-08T16:15:24.817Z,1.48
2023-05-08T16:17:55.487Z,1.30
2023-05-08T16:20:26.077Z,1.50
2023-05-08T16:22:59.888Z,1.30
2023-05-08T16:25:30.284Z,1.50
2023-05-08T16:28:01.161Z,1.40
2023-05-08T16:30:31.581Z,1.30
2023-05-08T16:33:02.035Z,1.30
2023-05-08T16:35:34.590Z,1.27
2023-05-08T16:38:06.516Z,1.20
2023-05-08T16:40:37.543Z,1.25
2023-05-08T16:43:10.117Z,1.25
2023-05-08T16:45:40.437Z,1.48
2023-05-08T16:48:10.799Z,1.27
2023-05-08T16:50:41.123Z,1.50
2023-05-08T16:53:11.971Z,1.10
2023-05-08T16:55:42.945Z,1.17
2023-05-08T16:58:13.335Z,1.02
2023-05-08T17:00:43.569Z,1.15
2023-05-08T17:03:14.015Z,1.40
2023-05-08T17:05:44.269Z,1.15
2023-05-08T17:08:14.925Z,1.48
2023-05-08T17:10:45.226Z,1.50
2023-05-08T17:13:15.461Z,1.20
2023-05-08T17:15:46.203Z,1.15
2023-05-08T17:18:24.343Z,1.35
2023-05-08T17:20:58.825Z,1.10
2023-05-08T17:23:30.254Z,1.13
2023-05-08T17:26:01.459Z,1.10
2023-05-08T17:28:34.834Z,1.15
2023-05-08T17:31:05.258Z,1.13
2023-05-08T17:33:35.612Z,1.38
2023-05-08T17:36:07.083Z,1.23
2023-05-08T17:38:39.975Z,1.10
2023-05-08T17:41:12.410Z,1.10
2023-05-08T17:43:44.440Z,1.20
2023-05-08T17:46:14.998Z,0.88
2023-05-08T17:48:45.388Z,1.15
2023-05-08T17:51:16.306Z,1.13
2023-05-08T17:53:46.724Z,1.02
2023-05-08T17:56:21.941Z,1.05
2023-05-08T17:58:56.139Z,1.00
2023-05-08T18:01:28.506Z,0.95
2023-05-08T18:03:58.867Z,1.10
2023-05-08T18:06:33.210Z,0.97
2023-05-08T18:09:04.855Z,1.17
2023-05-08T18:11:36.333Z,1.27
2023-05-08T18:14:08.058Z,1.10
2023-05-08T18:16:41.724Z,0.90
2023-05-08T18:19:14.750Z,1.02
2023-05-08T18:21:45.201Z,1.15
2023-05-08T18:24:15.742Z,0.83
2023-05-08T18:26:50.608Z,1.35
2023-05-08T18:29:23.808Z,1.10
2023-05-08T18:31:56.650Z,1.20
2023-05-08T18:34:27.944Z,0.85
2023-05-08T18:36:58.267Z,1.10
2023-05-08T18:39:28.544Z,0.80
2023-05-08T18:41:58.856Z,1.25
2023-05-08T18:44:29.208Z,1.02
2023-05-08T18:46:59.644Z,0.80
2023-05-08T18:49:30.234Z,0.97
2023-05-08T18:52:00.627Z,0.80
2023-05-08T18:54:31.422Z,1.10
2023-05-08T18:57:03.120Z,1.00
2023-05-08T18:59:33.701Z,0.90
2023-05-08T19:02:03.992Z,1.07
2023-05-08T19:04:34.273Z,0.97
2023-05-08T19:07:04.507Z,1.10
2023-05-08T19:09:36.496Z,1.00
2023-05-08T19:12:06.822Z,1.00
2023-05-08T19:14:38.429Z,0.93
2023-05-08T19:17:08.774Z,1.00
2023-05-08T19:19:39.054Z,1.00
2023-05-08T19:22:12.429Z,1.30
2023-05-08T19:24:42.678Z,1.20
2023-05-08T19:27:13.961Z,0.90
2023-05-08T19:29:44.168Z,1.20
2023-05-08T19:32:16.272Z,0.97
2023-05-08T19:34:46.481Z,1.20
2023-05-08T19:37:16.781Z,1.10
2023-05-08T19:39:47.133Z,1.03
2023-05-08T19:42:20.090Z,1.20
2023-05-08T19:44:51.000Z,1.30
2023-05-08T19:47:21.394Z,1.00
2023-05-08T19:49:52.927Z,1.03
2023-05-08T19:52:23.384Z,1.30
2023-05-08T19:54:53.679Z,1.30
2023-05-08T19:57:23.866Z,1.10
2023-05-08T19:59:54.127Z,1.10
2023-05-08T20:02:24.862Z,1.10
2023-05-08T20:05:21.180Z,1.33
2023-05-08T20:07:45.602Z,1.20
2023-05-08T20:10:16.254Z,1.17
2023-05-08T20:12:46.805Z,1.00
2023-05-08T20:15:17.148Z,1.27
2023-05-08T20:17:47.500Z,1.40
2023-05-08T20:20:17.851Z,1.10
2023-05-08T20:22:48.121Z,1.43
2023-05-08T20:25:18.577Z,1.50
2023-05-08T20:27:48.777Z,1.37
2023-05-08T20:30:20.092Z,1.37
2023-05-08T20:32:51.434Z,1.50
2023-05-08T20:35:21.965Z,1.57
2023-05-08T20:37:52.254Z,1.33
2023-05-08T20:40:22.886Z,1.27
2023-05-08T20:42:53.121Z,1.47
2023-05-08T20:45:23.466Z,1.40
2023-05-08T20:47:53.729Z,1.63
2023-05-08T20:50:24.022Z,1.07
2023-05-08T20:52:54.345Z,1.30
2023-05-08T20:55:24.722Z,1.40
2023-05-08T20:57:54.914Z,1.30
2023-05-08T21:00:25.176Z,1.40
2023-05-08T21:02:55.409Z,1.10
2023-05-08T21:05:25.658Z,1.60
2023-05-08T21:08:04.470Z,1.53
2023-05-08T21:10:35.012Z,1.40
2023-05-08T21:13:05.872Z,1.30
2023-05-08T21:15:36.684Z,1.40
2023-05-08T21:18:07.092Z,1.43
2023-05-08T21:20:37.269Z,1.30
2023-05-08T21:23:07.616Z,1.70
2023-05-08T21:25:37.944Z,1.50
2023-05-08T21:28:08.275Z,1.50
2023-05-08T21:30:38.533Z,1.50
2023-05-08T21:33:08.847Z,1.50
2023-05-08T21:35:39.460Z,1.60
2023-05-08T21:38:10.305Z,1.70
2023-05-08T21:40:40.940Z,1.50
2023-05-08T21:43:11.226Z,1.27
2023-05-08T21:45:41.491Z,1.50
2023-05-08T21:48:11.736Z,1.30
2023-05-08T21:50:41.972Z,1.20
2023-05-08T21:53:12.539Z,1.20
2023-05-08T21:55:42.862Z,1.20
2023-05-08T21:58:13.134Z,1.23
2023-05-08T22:00:43.429Z,1.20
2023-05-08T22:03:13.888Z,1.30
2023-05-08T22:05:44.263Z,1.20
2023-05-08T22:08:17.347Z,1.30
2023-05-08T22:10:47.994Z,1.20
2023-05-08T22:13:18.228Z,1.10
2023-05-08T22:15:48.586Z,1.27
2023-05-08T22:18:18.951Z,1.20
2023-05-08T22:20:49.258Z,1.25
2023-05-08T22:23:19.477Z,1.10
2023-05-08T22:25:49.871Z,1.97
2023-05-08T22:28:20.118Z,1.10
2023-05-08T22:30:50.402Z,1.50
2023-05-08T22:33:20.857Z,1.20
2023-05-08T22:35:51.089Z,1.27
2023-05-08T22:38:33.760Z,1.08
2023-05-08T22:41:04.859Z,1.10
2023-05-08T22:43:35.575Z,1.20
2023-05-08T22:46:06.071Z,1.30
2023-05-08T22:48:38.042Z,1.17
2023-05-08T22:51:10.593Z,1.20
2023-05-08T22:53:41.065Z,1.20
2023-05-08T22:56:11.781Z,1.10
2023-05-08T22:58:42.797Z,1.25
2023-05-08T23:01:14.706Z,1.05
2023-05-08T23:03:45.281Z,1.38
2023-05-08T23:06:15.492Z,1.10
2023-05-08T23:08:46.409Z,1.13
2023-05-08T23:11:18.262Z,1.00
2023-05-08T23:13:48.765Z,1.00
2023-05-08T23:16:19.009Z,0.90
2023-05-08T23:18:49.545Z,1.00
2023-05-08T23:21:19.790Z,1.00
2023-05-08T23:23:50.442Z,0.70
2023-05-08T23:26:21.339Z,1.23
2023-05-08T23:28:51.685Z,0.90
2023-05-08T23:31:22.062Z,0.90
2023-05-08T23:33:52.723Z,0.80
2023-05-08T23:36:23.596Z,0.75
2023-05-08T23:38:53.851Z,1.00
2023-05-08T23:41:24.045Z,0.90
2023-05-08T23:43:54.346Z,0.80
2023-05-08T23:46:24.637Z,0.90
2023-05-08T23:48:54.928Z,0.85
2023-05-08T23:51:25.127Z,0.85
2023-05-08T23:53:55.388Z,0.73
2023-05-08T23:56:26.429Z,1.00
2023-05-08T23:58:56.650Z,0.73
